Time;durP1;ratioP1;P1;durP2;ratioP2;P2;SDS_P1;SDS_P2;PMS_P1;PMS_P2;Temp;Humidity;BMP_temperature;BMP_pressure;BME280_temperature;BME280_humidity;BME280_pressure;Samples;Min_cycle;Max_cycle;Signal;HPM_P1;HPM_P2
2022/06/23 00:01:50;;;;;;;23.40;19.23;;;;;;;23.25;66.58;99524.84;4966757;28;20502;-78
2022/06/23 00:04:21;;;;;;;21.65;18.73;;;;;;;23.22;66.82;99531.53;4978736;28;20393;-78
2022/06/23 00:06:53;;;;;;;25.83;17.73;;;;;;;23.18;66.50;99533.88;4984047;28;20152;-78
2022/06/23 00:09:39;;;;;;;19.20;16.95;;;;;;;23.13;66.57;99535.63;4997287;28;20046;-78
2022/06/23 00:12:18;;;;;;;18.30;15.52;;;;;;;23.07;66.60;99522.97;4958750;28;20042;-78
2022/06/23 00:14:46;;;;;;;17.70;15.80;;;;;;;23.08;66.41;99530.88;4984221;28;20130;-78
2022/06/23 00:17:16;;;;;;;17.20;14.98;;;;;;;23.07;66.37;99531.91;4988867;28;20050;-78
2022/06/23 00:19:44;;;;;;;20.70;15.95;;;;;;;23.10;66.51;99531.47;4997967;28;20050;-78
2022/06/23 00:22:11;;;;;;;22.20;15.73;;;;;;;23.12;66.56;99542.91;4963479;28;20065;-78
2022/06/23 00:24:39;;;;;;;18.27;16.20;;;;;;;23.11;66.61;99538.53;4967530;28;20409;-78
2022/06/23 00:27:12;;;;;;;18.60;15.52;;;;;;;23.12;66.58;99533.94;4972639;28;20046;-78
2022/06/23 00:29:39;;;;;;;18.85;15.43;;;;;;;23.14;66.63;99534.56;4955278;28;20042;-78
2022/06/23 00:32:09;;;;;;;22.95;18.55;;;;;;;23.11;66.45;99527.72;4954278;28;20050;-78
2022/06/23 00:34:42;;;;;;;20.70;17.63;;;;;;;23.08;66.71;99521.94;4985234;28;20042;-78
2022/06/23 00:37:17;;;;;;;21.98;19.25;;;;;;;23.08;66.68;99524.63;4988434;28;20053;-78
2022/06/23 00:39:53;;;;;;;23.58;17.50;;;;;;;23.03;66.69;99519.88;4977233;28;20461;-78
2022/06/23 00:42:32;;;;;;;32.78;22.38;;;;;;;23.02;66.82;99520.09;4971148;28;20096;-78
2022/06/23 00:45:05;;;;;;;28.08;21.13;;;;;;;22.98;67.11;99527.03;4984743;28;20042;-78
2022/06/23 00:47:54;;;;;;;27.58;19.98;;;;;;;22.95;67.48;99512.03;4981029;28;20109;-78
2022/06/23 00:50:28;;;;;;;27.40;20.35;;;;;;;22.83;67.50;99517.34;4943056;28;20378;-78
2022/06/23 00:53:00;;;;;;;29.42;19.85;;;;;;;22.75;67.67;99513.06;4972640;28;20378;-78
2022/06/23 00:55:41;;;;;;;21.80;18.20;;;;;;;22.75;67.68;99515.75;4970516;28;20049;-78
2022/06/23 00:58:36;;;;;;;19.25;15.90;;;;;;;22.78;67.59;99509.06;4988455;28;20046;-78
2022/06/23 01:01:10;;;;;;;20.33;16.33;;;;;;;22.79;67.12;99508.00;4915461;28;20046;-78
2022/06/23 02:11:50;;;;;;;14.68;12.32;;;;;;;22.52;65.85;99553.44;4965661;28;20041;-78
2022/06/23 02:14:37;;;;;;;14.40;12.32;;;;;;;22.49;65.97;99549.31;4972196;28;20053;-78
2022/06/23 02:17:16;;;;;;;18.20;12.82;;;;;;;22.51;65.97;99549.06;4967723;28;20049;-78
2022/06/23 02:19:49;;;;;;;16.70;13.30;;;;;;;22.50;65.96;99550.94;4968210;28;20042;-78
2022/06/23 02:22:27;;;;;;;16.63;13.73;;;;;;;22.48;66.29;99558.44;4970558;28;20052;-78
2022/06/23 02:25:03;;;;;;;18.50;13.80;;;;;;;22.50;66.36;99564.47;4961045;28;20046;-78
2022/06/23 02:27:53;;;;;;;15.85;14.20;;;;;;;22.51;66.58;99562.59;4952170;28;20184;-78
2022/06/23 02:30:33;;;;;;;17.98;14.23;;;;;;;22.51;66.60;99562.59;4910879;28;20549;-78
2022/06/23 02:33:24;;;;;;;19.08;13.45;;;;;;;22.50;66.08;99564.47;5003253;28;20418;-78
2022/06/23 02:36:02;;;;;;;17.13;13.90;;;;;;;22.49;66.35;99560.13;4961819;28;20061;-78
2022/06/23 02:38:35;;;;;;;15.68;12.57;;;;;;;22.45;66.39;99566.19;4975220;28;20049;-78
2022/06/23 02:41:04;;;;;;;15.75;13.32;;;;;;;22.39;66.79;99562.50;4960871;28;20076;-78
2022/06/23 02:43:37;;;;;;;19.30;14.73;;;;;;;22.32;66.67;99561.72;4956473;28;20046;-77
2022/06/23 02:46:51;;;;;;;19.42;13.70;;;;;;;22.24;66.83;99561.97;4936150;28;20061;-78
2022/06/23 02:49:55;;;;;;;18.80;14.00;;;;;;;22.16;67.34;99562.19;4891401;28;20265;-78
2022/06/23 02:52:29;;;;;;;15.80;13.90;;;;;;;22.08;67.14;99555.16;4935519;28;20077;-78
2022/06/23 02:55:18;;;;;;;16.52;14.05;;;;;;;22.07;67.75;99567.03;4965103;28;20058;-78
2022/06/23 02:57:55;;;;;;;15.23;13.57;;;;;;;22.09;67.04;99564.94;4986555;28;20045;-78
2022/06/23 03:00:30;;;;;;;17.17;13.35;;;;;;;22.02;67.34;99569.56;4992995;28;20046;-77
2022/06/23 03:03:18;;;;;;;18.80;13.85;;;;;;;22.03;67.07;99563.09;4948253;28;20050;-78
2022/06/23 03:05:59;;;;;;;17.13;14.45;;;;;;;22.01;67.23;99571.44;4982197;28;20463;-87
2022/06/23 03:08:34;;;;;;;16.58;12.73;;;;;;;21.95;66.77;99574.16;4998810;28;20046;-87
2022/06/23 03:11:06;;;;;;;18.15;13.07;;;;;;;22.00;66.73;99577.06;4994479;28;20053;-87
2022/06/23 03:13:49;;;;;;;20.53;13.00;;;;;;;21.97;66.42;99586.44;4980773;28;20054;-86
2022/06/23 03:16:33;;;;;;;14.40;12.82;;;;;;;21.95;66.67;99587.69;4996706;28;20042;-87
2022/06/23 03:19:10;;;;;;;16.10;12.68;;;;;;;21.96;66.55;99589.38;4968157;28;20116;-88
2022/06/23 03:21:46;;;;;;;18.45;13.05;;;;;;;21.89;66.56;99584.81;4961140;28;20430;-87
2022/06/23 03:24:35;;;;;;;17.50;12.88;;;;;;;21.89;66.71;99589.38;4954170;28;20057;-87
2022/06/23 03:27:12;;;;;;;18.67;12.82;;;;;;;21.95;66.43;99593.91;4961181;28;20053;-87
2022/06/23 03:30:03;;;;;;;22.08;13.52;;;;;;;21.97;66.53;99588.31;4978076;28;20061;-87
2022/06/23 03:32:36;;;;;;;15.07;13.43;;;;;;;22.00;66.08;99595.97;4972945;28;20041;-84
2022/06/23 03:35:09;;;;;;;19.95;13.20;;;;;;;21.89;66.35;99595.63;4980738;28;20045;-85
2022/06/23 03:37:35;;;;;;;16.52;13.55;;;;;;;21.94;66.36;99583.34;4974464;28;20555;-84
2022/06/23 03:43:32;;;;;;;16.45;13.25;;;;;;;21.94;66.55;99586.03;4948715;28;20046;-84
2022/06/23 03:46:07;;;;;;;16.75;13.63;;;;;;;21.98;66.40;99581.84;4945354;28;20057;-84
2022/06/23 03:48:54;;;;;;;15.95;13.20;;;;;;;22.00;66.56;99579.75;4937355;28;20119;-84
2022/06/23 03:51:31;;;;;;;18.33;14.30;;;;;;;22.03;66.55;99587.44;4908698;28;20066;-83
2022/06/23 03:54:14;;;;;;;16.92;13.02;;;;;;;22.07;66.47;99586.78;4943498;28;20050;-84
2022/06/23 04:01:11;;;;;;;16.55;13.38;;;;;;;22.28;66.54;99588.34;4974621;28;20044;-87
2022/06/23 04:03:43;;;;;;;16.65;13.65;;;;;;;22.34;66.28;99594.78;4964443;28;20112;-88
2022/06/23 04:06:35;;;;;;;16.67;13.88;;;;;;;22.43;66.55;99589.94;4952864;28;20046;-88
2022/06/23 04:09:19;;;;;;;18.98;15.32;;;;;;;22.53;66.11;99596.50;4978156;28;20052;-87
2022/06/23 04:11:46;;;;;;;20.05;15.57;;;;;;;22.67;66.19;99597.25;4942531;28;20104;-87
2022/06/23 04:14:23;;;;;;;17.40;13.77;;;;;;;22.71;65.71;99600.31;4999356;28;20050;-87
2022/06/23 04:17:05;;;;;;;17.20;14.23;;;;;;;22.79;65.83;99605.47;4978734;28;20099;-81
2022/06/23 04:19:33;;;;;;;19.50;14.55;;;;;;;22.86;65.82;99600.00;4949403;28;20064;-80
2022/06/23 04:22:23;;;;;;;18.38;14.10;;;;;;;22.83;65.41;99603.16;4978403;28;20056;-82
2022/06/23 04:25:18;;;;;;;15.70;13.90;;;;;;;22.74;65.38;99589.91;4991231;28;20668;-82
2022/06/23 04:27:54;;;;;;;19.20;14.35;;;;;;;22.74;65.57;99589.91;4924989;29;20058;-82
2022/06/23 04:30:41;;;;;;;15.20;13.60;;;;;;;22.73;65.52;99598.22;4921795;29;20046;-83
2022/06/23 04:33:18;;;;;;;16.70;13.20;;;;;;;22.79;65.66;99602.75;4881106;28;20055;-83
2022/06/23 04:35:49;;;;;;;15.10;13.50;;;;;;;22.84;65.58;99600.22;4918355;29;20644;-83
2022/06/23 04:38:25;;;;;;;16.38;13.15;;;;;;;22.79;65.58;99602.75;4889226;28;20403;-83
2022/06/23 04:41:02;;;;;;;15.25;13.75;;;;;;;22.76;65.50;99605.91;4931341;28;20039;-83
2022/06/23 04:43:35;;;;;;;14.52;13.02;;;;;;;22.75;65.84;99615.09;4894639;29;20173;-83
2022/06/23 04:46:07;;;;;;;;;;;;;;;22.63;66.18;99614.97;4925289;29;20130;-86
2022/06/23 04:48:54;;;;;;;19.13;14.53;;;;;;;22.63;66.28;99620.38;4905908;28;19926;-86
2022/06/23 04:51:28;;;;;;;19.75;14.02;;;;;;;22.61;66.13;99618.94;4891762;29;21243;-86
2022/06/23 04:54:10;;;;;;;22.10;15.07;;;;;;;22.59;66.17;99624.56;4930050;29;20074;-87
2022/06/23 04:56:42;;;;;;;18.48;15.70;;;;;;;22.50;66.24;99629.41;4910439;29;20047;-86
2022/06/23 04:59:27;;;;;;;20.83;15.00;;;;;;;22.46;66.04;99627.38;4931177;28;20050;-86
2022/06/23 05:01:56;;;;;;;25.23;15.90;;;;;;;22.45;66.01;99633.84;4976600;28;20487;-86
2022/06/23 05:04:27;;;;;;;21.20;15.93;;;;;;;22.39;65.75;99626.56;4968457;28;20053;-86
2022/06/23 05:06:57;;;;;;;26.13;16.13;;;;;;;22.38;66.29;99636.56;4978057;28;20099;-86
2022/06/23 05:09:30;;;;;;;24.60;16.50;;;;;;;22.32;66.25;99637.44;4969189;28;20048;-85
2022/06/23 05:12:00;;;;;;;19.45;15.82;;;;;;;22.29;66.30;99638.72;4973492;28;20148;-86
2022/06/23 05:14:31;;;;;;;20.48;15.32;;;;;;;22.27;66.51;99639.97;4971860;28;20049;-86
2022/06/23 05:17:05;;;;;;;24.35;16.35;;;;;;;22.24;66.81;99633.13;4986275;28;20359;-86
2022/06/23 05:19:36;;;;;;;21.40;14.93;;;;;;;22.12;66.91;99637.53;4965424;28;20128;-85
2022/06/23 05:22:22;;;;;;;26.25;16.05;;;;;;;22.01;67.59;99638.22;4997412;28;20054;-85
2022/06/23 05:24:49;;;;;;;21.92;16.33;;;;;;;22.02;67.48;99643.38;5000004;28;20050;-86
2022/06/23 05:27:29;;;;;;;18.17;15.43;;;;;;;22.02;67.76;99635.28;4983251;28;20050;-86
2022/06/23 05:30:02;;;;;;;20.88;16.98;;;;;;;22.07;67.58;99634.63;4952412;28;20389;-87
2022/06/23 05:32:29;;;;;;;22.98;16.88;;;;;;;22.06;67.72;99631.09;4957403;28;20139;-86
2022/06/23 05:35:21;;;;;;;24.08;16.45;;;;;;;22.09;67.75;99633.38;4980246;28;20465;-85
2022/06/23 05:37:52;;;;;;;21.83;17.35;;;;;;;22.14;67.63;99635.44;4977074;28;20048;-83
2022/06/23 05:40:28;;;;;;;23.27;16.38;;;;;;;22.15;67.85;99634.38;4980958;28;20038;-83
2022/06/23 05:42:59;;;;;;;20.10;15.95;;;;;;;22.18;67.67;99639.34;4959060;28;20043;-83
2022/06/23 05:45:44;;;;;;;24.13;17.55;;;;;;;22.15;67.37;99639.78;4952626;28;20498;-83
2022/06/23 05:48:15;;;;;;;18.58;15.18;;;;;;;22.17;67.05;99639.59;4943223;28;20043;-83
2022/06/23 05:50:52;;;;;;;25.38;16.38;;;;;;;22.16;67.50;99630.66;4957240;28;20050;-83
2022/06/23 05:53:33;;;;;;;20.25;17.05;;;;;;;22.14;67.12;99640.03;4945948;28;20050;-83
2022/06/23 05:56:04;;;;;;;26.15;17.00;;;;;;;22.14;67.04;99650.84;4958070;28;20039;-83
2022/06/23 05:58:37;;;;;;;21.42;17.60;;;;;;;22.16;67.35;99654.13;4953154;28;20047;-83
2022/06/23 06:01:11;;;;;;;24.55;17.52;;;;;;;22.19;67.02;99651.03;4962879;28;20117;-83
2022/06/23 06:03:55;;;;;;;22.98;17.63;;;;;;;22.19;66.97;99638.34;4949434;28;20589;-83
2022/06/23 06:06:22;;;;;;;23.48;17.70;;;;;;;22.26;67.20;99649.97;4964711;28;20050;-83
2022/06/23 06:11:45;;;;;;;23.77;15.82;;;;;;;22.26;66.65;99657.22;4899253;28;20059;-83
2022/06/23 06:14:13;;;;;;;18.70;15.73;;;;;;;22.28;67.13;99653.25;4944170;28;20170;-82
2022/06/23 06:16:40;;;;;;;19.60;16.17;;;;;;;22.33;67.26;99660.72;4930811;28;20178;-83
2022/06/23 06:19:15;;;;;;;22.95;18.20;;;;;;;22.31;67.44;99655.56;4970617;28;20042;-83
2022/06/23 06:21:43;;;;;;;32.35;19.95;;;;;;;22.38;67.44;99649.28;4920591;28;20073;-83
2022/06/23 06:24:36;;;;;;;31.10;20.45;;;;;;;22.45;67.24;99655.47;4949896;28;20035;-83
2022/06/23 06:27:08;;;;;;;35.33;20.85;;;;;;;22.42;67.49;99655.91;4905238;28;20046;-82
2022/06/23 06:29:37;;;;;;;33.85;19.92;;;;;;;22.42;67.47;99650.50;4948541;28;20089;-82
2022/06/23 06:32:22;;;;;;;33.17;21.80;;;;;;;22.42;67.52;99645.09;4964442;28;20058;-82
2022/06/23 06:35:13;;;;;;;34.55;20.83;;;;;;;22.39;67.79;99651.78;4957978;28;20045;-83
2022/06/23 06:37:43;;;;;;;38.08;21.80;;;;;;;22.48;67.65;99655.03;4931177;28;20502;-82
2022/06/23 06:40:10;;;;;;;30.10;19.90;;;;;;;22.51;67.96;99655.41;4993389;28;20041;-82
2022/06/23 06:42:42;;;;;;;34.78;20.60;;;;;;;22.56;68.25;99660.19;4938072;28;20052;-82
2022/06/23 06:45:15;;;;;;;31.63;20.08;;;;;;;22.59;68.32;99661.63;4961888;28;20046;-82
2022/06/23 06:47:43;;;;;;;34.28;20.65;;;;;;;22.64;68.09;99662.63;4979957;28;20069;-82
2022/06/23 06:50:18;;;;;;;42.10;22.20;;;;;;;22.66;68.45;99657.81;4955177;28;20054;-82
2022/06/23 06:52:48;;;;;;;32.05;21.27;;;;;;;22.74;68.54;99654.88;4982121;28;20223;-82
2022/06/23 06:55:19;;;;;;;30.52;20.33;;;;;;;22.77;68.59;99653.59;4947806;28;20140;-81
2022/06/23 06:57:52;;;;;;;33.10;21.30;;;;;;;22.80;68.58;99652.34;4920010;28;20055;-87
2022/06/23 07:00:26;;;;;;;34.92;23.15;;;;;;;22.86;68.53;99657.69;4913119;28;20039;-87
2022/06/23 07:02:59;;;;;;;32.00;21.83;;;;;;;22.95;68.56;99663.66;4900029;28;20066;-86
2022/06/23 07:05:28;;;;;;;;;;;;;;;22.89;69.09;99659.13;4928743;28;20108;-81
2022/06/23 07:08:01;;;;;;;38.00;22.77;;;;;;;22.97;68.33;99661.56;4926075;28;19929;-81
2022/06/23 07:10:41;;;;;;;37.30;25.08;;;;;;;22.94;68.96;99657.41;4936943;28;20470;-81
2022/06/23 07:13:23;;;;;;;37.53;26.80;;;;;;;22.95;68.58;99656.38;4908252;28;20439;-82
2022/06/23 07:16:15;;;;;;;40.15;25.95;;;;;;;22.95;69.23;99659.06;4877670;28;20233;-82
2022/06/23 07:18:44;;;;;;;37.35;24.58;;;;;;;23.05;69.04;99655.91;4879324;28;20051;-82
2022/06/23 07:21:18;;;;;;;42.08;26.38;;;;;;;23.07;68.99;99648.38;4920939;28;20126;-82
2022/06/23 07:23:59;;;;;;;39.35;25.75;;;;;;;23.07;68.64;99644.84;4920918;28;20051;-81
2022/06/23 07:26:32;;;;;;;36.60;24.83;;;;;;;23.14;68.65;99642.91;4910252;28;20438;-82
2022/06/23 07:29:05;;;;;;;39.22;25.20;;;;;;;23.17;68.34;99637.03;4967933;28;20077;-81
2022/06/23 07:31:53;;;;;;;36.03;23.40;;;;;;;23.16;68.39;99641.63;4953550;28;20046;-87
2022/06/23 07:34:22;;;;;;;46.72;26.40;;;;;;;23.23;68.36;99638.00;4890538;28;20568;-87
2022/06/23 07:36:59;;;;;;;37.42;26.85;;;;;;;23.21;68.73;99640.13;4981403;28;20377;-87
2022/06/23 07:39:29;;;;;;;42.83;25.98;;;;;;;23.22;68.65;99642.59;4975134;28;20042;-87
2022/06/23 07:42:01;;;;;;;41.53;26.60;;;;;;;23.26;68.29;99635.69;4959927;28;20433;-87
2022/06/23 07:44:39;;;;;;;38.38;24.63;;;;;;;23.33;68.33;99632.91;4968112;28;20052;-87
2022/06/23 07:47:06;;;;;;;48.00;27.25;;;;;;;23.29;68.86;99637.97;4961971;28;20414;-86
2022/06/23 07:49:34;;;;;;;39.85;26.40;;;;;;;23.26;68.54;99627.56;4982934;28;20486;-87
2022/06/23 07:52:03;;;;;;;37.63;24.58;;;;;;;23.22;69.59;99636.38;4979636;28;20054;-87
2022/06/23 07:54:35;;;;;;;38.05;26.52;;;;;;;23.34;68.93;99629.16;4976817;28;20050;-85
2022/06/23 07:57:03;;;;;;;39.80;25.48;;;;;;;23.32;69.94;99632.09;4965583;28;20050;-87
2022/06/23 07:59:40;;;;;;;34.83;23.95;;;;;;;23.36;69.44;99630.59;4976858;28;20042;-86
2022/06/23 08:02:20;;;;;;;37.40;25.08;;;;;;;23.36;68.65;99627.06;4941445;28;20387;-85
2022/06/23 08:05:13;;;;;;;38.85;25.40;;;;;;;23.40;68.41;99622.84;4982742;28;20056;-86
2022/06/23 08:07:40;;;;;;;35.58;22.73;;;;;;;23.48;68.27;99619.81;4925046;28;20132;-82
2022/06/23 08:10:11;;;;;;;35.45;22.02;;;;;;;23.53;68.27;99622.69;4950918;28;20050;-82
2022/06/23 08:12:53;;;;;;;32.40;22.27;;;;;;;23.50;68.57;99616.91;4969008;28;20041;-82
2022/06/23 08:18:15;;;;;;;34.22;21.10;;;;;;;23.53;68.70;99625.38;4965759;28;20054;-82
2022/06/23 08:20:47;;;;;;;35.92;21.33;;;;;;;23.53;69.44;99624.56;4946059;28;20049;-82
2022/06/23 08:23:15;;;;;;;30.60;19.20;;;;;;;23.59;69.48;99620.97;4977381;28;20553;-82
2022/06/23 08:25:43;;;;;;;27.10;17.50;;;;;;;23.62;69.13;99618.63;4950083;28;21129;-82
2022/06/23 08:28:10;;;;;;;26.67;18.70;;;;;;;23.67;69.69;99614.41;4970582;28;20501;-82
2022/06/23 08:30:39;;;;;;;27.90;18.20;;;;;;;23.70;69.44;99611.25;4981433;28;20065;-82
2022/06/23 08:33:06;;;;;;;30.27;17.35;;;;;;;23.72;69.87;99601.00;4966771;28;20046;-82
2022/06/23 08:35:43;;;;;;;27.90;17.42;;;;;;;23.71;68.90;99600.19;4979100;28;20068;-82
2022/06/23 08:38:16;;;;;;;28.17;17.75;;;;;;;23.65;69.65;99603.78;4953263;28;20125;-82
2022/06/23 08:41:01;;;;;;;24.02;16.92;;;;;;;23.75;69.94;99601.41;4960571;28;20049;-82
2022/06/23 08:43:59;;;;;;;28.50;16.02;;;;;;;23.71;69.16;99604.75;4954880;28;20398;-87
2022/06/23 08:46:35;;;;;;;23.73;12.95;;;;;;;23.78;69.50;99592.00;4972362;28;20041;-82
2022/06/23 08:49:09;;;;;;;29.70;15.13;;;;;;;23.88;68.98;99591.44;4967917;28;20057;-82
2022/06/23 08:51:56;;;;;;;26.13;15.32;;;;;;;23.88;68.15;99586.03;4978129;28;20074;-82
2022/06/23 08:54:32;;;;;;;22.40;14.18;;;;;;;23.93;67.80;99588.88;4982022;28;20054;-83
2022/06/23 08:57:10;;;;;;;23.10;13.80;;;;;;;24.01;67.59;99594.81;4986629;28;20057;-82
2022/06/23 08:59:48;;;;;;;22.65;13.73;;;;;;;24.02;67.11;99582.91;4954435;28;20037;-85
2022/06/23 09:02:22;;;;;;;22.35;12.98;;;;;;;24.09;67.79;99574.66;4939912;28;20104;-85
2022/06/23 09:05:24;;;;;;;20.55;11.48;;;;;;;24.08;66.95;99583.06;4913161;28;20482;-86
2022/06/23 09:07:59;;;;;;;17.67;11.70;;;;;;;24.10;66.74;99579.03;4969819;28;20050;-83
2022/06/23 09:10:42;;;;;;;18.75;10.57;;;;;;;24.04;66.78;99579.94;4968349;28;20057;-82
2022/06/23 09:13:24;;;;;;;17.52;9.90;;;;;;;24.12;67.18;99581.50;4985202;28;20399;-82
2022/06/23 09:16:16;;;;;;;14.63;9.77;;;;;;;24.08;66.70;99577.63;4964738;28;20066;-82
2022/06/23 09:18:52;;;;;;;19.52;10.75;;;;;;;24.25;66.54;99568.59;4964659;28;20038;-82
2022/06/23 09:21:44;;;;;;;18.67;9.98;;;;;;;24.23;66.47;99569.88;4961191;28;20128;-81
2022/06/23 09:24:30;;;;;;;18.75;9.40;;;;;;;24.20;65.21;99562.22;4961328;28;20118;-82
2022/06/23 09:27:11;;;;;;;22.27;10.95;;;;;;;24.29;65.01;99557.28;4969959;28;20061;-82
2022/06/23 09:29:52;;;;;;;17.95;9.90;;;;;;;24.34;65.24;99550.09;4944265;28;20040;-84
2022/06/23 09:32:42;;;;;;;19.70;10.32;;;;;;;24.38;65.07;99558.59;4962434;28;20050;-85
2022/06/23 09:35:39;;;;;;;17.67;10.18;;;;;;;24.31;64.94;99549.72;4966366;28;20437;-85
2022/06/23 09:38:37;;;;;;;20.23;9.88;;;;;;;24.37;64.82;99540.66;4973212;28;20054;-84
2022/06/23 09:41:28;;;;;;;16.80;10.27;;;;;;;24.45;65.21;99543.91;4949796;28;20048;-85
2022/06/23 09:44:07;;;;;;;21.02;10.55;;;;;;;24.59;65.39;99554.53;4972625;28;20121;-84
2022/06/23 09:46:53;;;;;;;18.85;10.52;;;;;;;24.54;64.12;99546.25;4993709;28;20038;-85
2022/06/23 09:49:49;;;;;;;16.48;10.50;;;;;;;24.52;63.53;99542.94;4965543;28;20041;-83
2022/06/23 09:52:35;;;;;;;17.45;9.65;;;;;;;24.63;63.85;99545.69;4952952;28;20045;-85
2022/06/23 09:55:37;;;;;;;19.00;9.88;;;;;;;24.53;63.57;99536.47;4945071;28;20124;-85
2022/06/23 09:58:25;;;;;;;17.70;9.55;;;;;;;24.64;64.18;99541.91;4945917;28;20046;-83
2022/06/23 10:01:10;;;;;;;21.90;10.90;;;;;;;24.61;63.44;99538.84;4964882;28;20050;-82
2022/06/23 10:04:01;;;;;;;19.90;10.10;;;;;;;24.59;62.72;99528.22;4976759;28;20048;-83
2022/06/23 10:06:39;;;;;;;21.70;10.00;;;;;;;24.66;63.54;99522.69;4949723;28;20544;-83
2022/06/23 10:09:16;;;;;;;15.18;8.60;;;;;;;24.72;63.98;99529.03;4983685;28;20553;-83
2022/06/23 10:12:13;;;;;;;17.83;9.50;;;;;;;24.68;64.25;99518.66;4984421;28;20137;-83
2022/06/23 10:15:11;;;;;;;16.13;9.82;;;;;;;24.72;63.96;99513.56;4926245;28;20448;-83
2022/06/23 10:17:44;;;;;;;22.45;10.93;;;;;;;24.84;64.54;99519.84;4926191;28;20107;-83
2022/06/23 10:20:35;;;;;;;18.27;8.63;;;;;;;24.78;64.28;99520.78;4997124;28;20447;-87
2022/06/23 10:23:22;;;;;;;19.83;9.68;;;;;;;24.90;63.69;99518.06;4950953;28;20038;-87
2022/06/23 10:26:12;;;;;;;16.70;8.40;;;;;;;24.99;62.39;99519.34;4967529;28;20490;-86
2022/06/23 10:29:03;;;;;;;13.90;9.02;;;;;;;25.03;62.23;99511.53;4969007;28;20046;-85
2022/06/23 10:32:09;;;;;;;20.45;9.70;;;;;;;25.02;61.92;99507.19;4974831;28;20058;-85
2022/06/23 10:34:59;;;;;;;15.27;9.05;;;;;;;25.12;61.86;99510.94;4911120;28;21538;-85
2022/06/23 10:38:11;;;;;;;13.45;8.40;;;;;;;24.99;61.80;99496.81;4929289;28;20057;-87
2022/06/23 10:40:45;;;;;;;18.15;8.30;;;;;;;25.13;61.31;99499.00;4948112;28;20056;-83
2022/06/23 10:43:35;;;;;;;15.98;7.97;;;;;;;25.17;61.83;99502.13;4969846;28;20084;-82
2022/06/23 10:46:13;;;;;;;17.73;8.60;;;;;;;25.21;60.68;99486.13;4965297;28;20042;-83
2022/06/23 10:48:52;;;;;;;17.20;8.05;;;;;;;25.32;60.45;99483.41;4980745;28;20073;-83
2022/06/23 10:51:44;;;;;;;18.52;8.50;;;;;;;25.39;60.42;99477.00;4959899;28;20505;-84
2022/06/23 10:54:28;;;;;;;12.55;8.32;;;;;;;25.39;59.69;99479.72;4983333;28;20489;-84
2022/06/23 10:57:19;;;;;;;13.43;8.10;;;;;;;25.41;60.04;99475.69;4954124;28;20068;-83
2022/06/23 11:00:04;;;;;;;15.63;8.05;;;;;;;25.50;59.96;99474.25;4990940;28;20121;-83
2022/06/23 11:02:39;;;;;;;17.17;8.85;;;;;;;25.56;60.47;99477.88;4939635;28;20121;-83
2022/06/23 11:05:35;;;;;;;15.43;7.80;;;;;;;25.50;59.66;99468.81;4974975;28;20120;-83
2022/06/23 11:08:18;;;;;;;14.48;7.30;;;;;;;25.56;59.67;99465.09;4957773;28;20467;-83
2022/06/23 11:10:57;;;;;;;14.45;7.50;;;;;;;25.62;59.37;99467.91;4978915;28;20050;-83
2022/06/23 11:13:54;;;;;;;13.73;6.95;;;;;;;25.63;59.76;99464.97;4953907;28;20037;-83
2022/06/23 11:16:42;;;;;;;14.23;7.90;;;;;;;25.76;59.80;99455.69;4932837;28;20038;-83
2022/06/23 11:19:24;;;;;;;16.33;7.70;;;;;;;25.87;60.05;99456.72;4974615;28;20129;-83
2022/06/23 11:22:02;;;;;;;12.88;7.20;;;;;;;25.88;59.56;99450.22;4953704;28;20474;-83
2022/06/23 11:24:48;;;;;;;17.67;7.60;;;;;;;25.86;58.90;99447.72;4986005;28;20046;-83
2022/06/23 11:27:37;;;;;;;15.07;6.88;;;;;;;26.04;59.17;99441.22;4956060;28;20678;-84
2022/06/23 11:30:14;;;;;;;12.70;7.07;;;;;;;25.95;57.99;99446.28;4959465;28;20057;-85
2022/06/23 11:33:04;;;;;;;15.82;7.00;;;;;;;26.06;58.06;99439.09;4999568;28;20042;-88
2022/06/23 11:36:09;;;;;;;14.85;6.93;;;;;;;26.06;56.47;99430.94;4987362;28;20053;-87
2022/06/23 11:39:01;;;;;;;17.77;5.97;;;;;;;26.17;56.79;99429.19;4951225;28;20619;-86
2022/06/23 11:41:48;;;;;;;15.50;6.45;;;;;;;26.19;57.09;99424.34;4959816;28;20502;-87
2022/06/23 11:44:40;;;;;;;9.18;5.80;;;;;;;26.24;56.15;99416.25;4975304;28;21071;-88
2022/06/23 11:47:29;;;;;;;13.32;6.55;;;;;;;26.32;56.53;99418.53;4917898;28;20061;-86
2022/06/23 11:50:22;;;;;;;17.92;6.38;;;;;;;26.33;56.31;99416.63;4915507;28;20489;-88
2022/06/23 11:53:13;;;;;;;12.80;5.65;;;;;;;26.40;55.70;99415.38;4938623;28;20450;-87
2022/06/23 11:55:50;;;;;;;13.65;5.28;;;;;;;26.41;55.35;99405.34;4962529;28;20056;-87
2022/06/23 11:58:40;;;;;;;11.68;5.25;;;;;;;26.46;55.05;99412.75;4962749;28;20052;-87
2022/06/23 12:01:16;;;;;;;12.70;5.43;;;;;;;26.54;55.48;99407.75;4937042;28;20456;-88
2022/06/23 12:03:51;;;;;;;10.60;5.35;;;;;;;26.62;55.88;99404.59;4988129;28;20054;-87
2022/06/23 12:06:56;;;;;;;9.88;5.43;;;;;;;26.63;54.48;99400.78;4986992;28;20050;-89
2022/06/23 12:09:28;;;;;;;13.07;5.18;;;;;;;26.71;54.23;99385.06;4982220;28;20042;-87
2022/06/23 12:11:56;;;;;;;;;;;;;;;26.62;54.67;99390.97;4987093;28;20046;-87
2022/06/23 12:14:24;;;;;;;12.02;4.75;;;;;;;26.87;54.77;99388.81;4989122;28;20260;-87
2022/06/23 12:17:17;;;;;;;8.27;4.57;;;;;;;26.75;52.70;99383.50;4970982;28;20057;-87
2022/06/23 12:20:23;;;;;;;10.93;4.50;;;;;;;26.77;52.91;99379.44;4953890;28;20045;-87
2022/06/23 12:23:07;;;;;;;9.48;4.72;;;;;;;26.85;51.45;99380.91;4915211;28;20143;-87
2022/06/23 12:26:09;;;;;;;12.90;4.85;;;;;;;26.90;51.19;99380.97;4968653;28;20049;-87
2022/06/23 12:28:45;;;;;;;15.53;4.47;;;;;;;26.90;51.12;99380.16;4966085;28;20382;-87
2022/06/23 12:31:25;;;;;;;8.40;4.20;;;;;;;27.01;51.93;99376.47;4964387;28;20452;-88
2022/06/23 12:34:23;;;;;;;8.88;4.60;;;;;;;26.98;51.14;99371.53;4924102;28;20409;-88
2022/06/23 12:37:05;;;;;;;8.20;4.00;;;;;;;26.98;51.22;99366.06;4926563;28;20073;-88
2022/06/23 12:39:51;;;;;;;14.60;4.30;;;;;;;27.01;51.13;99362.84;4964375;28;20383;-87
2022/06/23 12:42:38;;;;;;;10.88;4.75;;;;;;;27.12;50.19;99352.84;4969161;28;20414;-87
2022/06/23 12:45:30;;;;;;;8.40;4.03;;;;;;;27.05;50.46;99356.63;4939408;28;20050;-86
2022/06/23 12:48:10;;;;;;;;;;;;;;;26.92;49.97;99354.28;4971981;28;20521;-87
2022/06/23 12:50:43;;;;;;;7.50;4.00;;;;;;;27.03;50.49;99352.50;4938350;28;20443;-87
2022/06/23 12:53:24;;;;;;;10.55;4.28;;;;;;;27.10;50.67;99347.69;4969588;28;20042;-88
2022/06/23 12:55:58;;;;;;;10.32;4.13;;;;;;;27.03;50.40;99342.41;4981254;28;20658;-88
2022/06/23 12:58:34;;;;;;;8.55;3.97;;;;;;;27.07;49.18;99340.00;4977816;28;20046;-88
2022/06/23 13:01:13;;;;;;;8.10;3.60;;;;;;;27.08;49.86;99329.94;4958138;28;20042;-87
2022/06/23 13:03:56;;;;;;;7.90;3.85;;;;;;;27.15;49.53;99331.38;4927201;28;20520;-88
2022/06/23 13:06:34;;;;;;;11.15;4.25;;;;;;;27.27;50.51;99328.50;4973067;28;20056;-88
2022/06/23 13:09:17;;;;;;;7.57;4.10;;;;;;;27.24;49.48;99329.84;4973422;28;20429;-87
2022/06/23 13:11:57;;;;;;;11.23;3.72;;;;;;;27.33;49.03;99319.31;4939374;28;20061;-88
2022/06/23 13:14:35;;;;;;;13.43;4.03;;;;;;;27.48;49.40;99319.47;4952742;28;21155;-88
2022/06/23 13:17:21;;;;;;;12.95;4.35;;;;;;;27.52;48.51;99308.84;4955498;28;20047;-87
2022/06/23 13:20:24;;;;;;;9.73;4.15;;;;;;;27.53;48.62;99312.38;4943705;28;20049;-88
2022/06/23 13:22:59;;;;;;;13.23;3.80;;;;;;;27.63;48.46;99302.41;4900658;28;20495;-87
2022/06/23 13:30:19;;;;;;;9.38;4.80;;;;;;;27.77;47.25;99301.94;4991973;28;20076;-85
2022/06/23 13:33:11;;;;;;;11.40;4.35;;;;;;;27.71;47.30;99293.72;4985948;28;20045;-85
2022/06/23 13:35:46;;;;;;;13.15;3.97;;;;;;;27.75;48.65;99280.38;4970318;28;20497;-85
2022/06/23 13:38:40;;;;;;;10.55;3.78;;;;;;;27.73;47.28;99279.00;4951684;28;20040;-84
2022/06/23 13:41:16;;;;;;;11.50;4.43;;;;;;;27.81;47.96;99282.09;4958087;28;20049;-85
2022/06/23 13:44:14;;;;;;;7.95;3.58;;;;;;;27.85;47.19;99276.94;4967669;28;20049;-85
2022/06/23 13:47:21;;;;;;;13.43;4.50;;;;;;;27.95;46.87;99279.72;4936380;28;20046;-84